Accueil
METAR-TAF:

METAR-TAF

Aéroports :

Aéroport national de l'île de Naxos

Naxos, Grèce

latitude: 37-04-47N, longitude: 025-22-01E, altitude: 3 m

Observation

Le bulletin a été fait il y a 13 heures et 32 minutes, à 14:50 UTC
Vent 8 kt de sud/sud-ouest
Température 15°C
Humidité 55%
Pression 1016 hPa
Visibilité 10 km ou plus
Quelques nuages à une hauteur de 3000 ft

METAR: LGNX 221450Z 21008KT 9999 FEW030 15/06 Q1016

Heure: 06:22 (04:22 UTC)


TAF: absent

Observations et prévisions météorologiques de plus de 4000 aéroports (messages METAR et TAF).

Les stations disponibles sont représentées par des disques jaunes et rouges sur la carte.

Passer la souris dessus pour voir le nom de la station.

Cliquer dessus pour voir les observations et prévisions météorologiques.

Pour changer de carte: cliquez sur les boutons verts avec une croix noire pour zoomer, sur le bouton vert avec un tiret pour effectuer un zoom arrière, ou sur les flèches vertes pour les cartes adjacentes.


METAR-TAF: